Time;durP1;ratioP1;P1;durP2;ratioP2;P2;SDS_P1;SDS_P2;PMS_P1;PMS_P2;Temp;Humidity;BMP_temperature;BMP_pressure;BME280_temperature;BME280_humidity;BME280_pressure;Samples;Min_cycle;Max_cycle;Signal;HPM_P1;HPM_P2
2022/05/10 00:00:39;;;;;;;5.85;2.65;;;;;;;;;;5003819;28;20227;-18
2022/05/10 00:03:06;;;;;;;5.97;2.50;;;;;;;;;;5004041;28;20243;-18
2022/05/10 00:05:35;;;;;;;5.95;2.55;;;;;;;;;;4999161;28;20267;-18
2022/05/10 00:08:03;;;;;;;4.85;2.55;;;;;;;;;;4999904;28;20236;-19
2022/05/10 00:10:30;;;;;;;5.03;2.70;;;;;;;;;;5003271;28;20243;-19
2022/05/10 00:12:58;;;;;;;3.85;2.40;;;;;;;;;;5000752;28;20236;-19
2022/05/10 00:15:26;;;;;;;5.72;2.78;;;;;;;;;;4998932;28;20224;-19
2022/05/10 00:17:54;;;;;;;3.42;2.42;;;;;;;;;;5002334;28;20263;-19
2022/05/10 00:20:22;;;;;;;4.03;2.45;;;;;;;;;;5001995;28;20223;-18
2022/05/10 00:22:49;;;;;;;4.20;2.60;;;;;;;;;;5001592;28;20704;-18
2022/05/10 00:25:17;;;;;;;3.33;2.55;;;;;;;;;;4996893;28;20244;-18
2022/05/10 00:27:44;;;;;;;4.68;2.58;;;;;;;;;;4999404;28;20238;-19
2022/05/10 00:30:12;;;;;;;6.22;2.92;;;;;;;;;;4999603;28;20243;-18
2022/05/10 00:32:40;;;;;;;6.03;2.58;;;;;;;;;;4999865;28;20232;-18
2022/05/10 00:35:12;;;;;;;5.80;2.88;;;;;;;;;;5002749;28;20227;-19
2022/05/10 00:37:39;;;;;;;8.00;2.70;;;;;;;;;;4999310;28;20270;-18
2022/05/10 00:40:07;;;;;;;6.88;2.80;;;;;;;;;;4999516;28;20703;-19
2022/05/10 00:42:36;;;;;;;3.85;2.58;;;;;;;;;;5003049;28;21083;-19
2022/05/10 00:45:04;;;;;;;6.50;2.83;;;;;;;;;;4991779;28;20235;-19
2022/05/10 00:47:32;;;;;;;3.83;2.38;;;;;;;;;;4995092;28;20719;-19
2022/05/10 00:50:02;;;;;;;8.30;2.85;;;;;;;;;;4999600;28;20339;-19
2022/05/10 00:52:30;;;;;;;3.70;2.85;;;;;;;;;;4999334;28;20228;-19
2022/05/10 00:54:59;;;;;;;3.67;2.85;;;;;;;;;;5002136;28;20239;-19
2022/05/10 00:57:28;;;;;;;4.55;2.70;;;;;;;;;;5000052;28;20305;-19
2022/05/10 00:59:57;;;;;;;13.52;2.88;;;;;;;;;;5001585;28;20228;-18
2022/05/10 01:02:31;;;;;;;6.60;3.05;;;;;;;;;;4999448;28;20227;-18
2022/05/10 01:05:03;;;;;;;6.50;2.78;;;;;;;;;;5002643;28;20262;-19
2022/05/10 01:07:31;;;;;;;5.85;3.20;;;;;;;;;;4998554;28;20235;-18
2022/05/10 01:09:58;;;;;;;7.00;2.72;;;;;;;;;;5001439;28;20235;-18
2022/05/10 01:12:29;;;;;;;9.10;3.05;;;;;;;;;;5002866;28;20240;-19
2022/05/10 01:14:57;;;;;;;4.53;2.70;;;;;;;;;;4999262;28;20228;-19
2022/05/10 01:17:24;;;;;;;6.38;2.92;;;;;;;;;;4998940;28;20242;-19
2022/05/10 01:19:52;;;;;;;5.57;2.90;;;;;;;;;;5002933;28;20227;-19
2022/05/10 01:22:26;;;;;;;6.80;2.70;;;;;;;;;;4998306;28;20707;-18
2022/05/10 01:25:05;;;;;;;5.28;2.83;;;;;;;;;;5000903;28;20310;-18
2022/05/10 01:27:44;;;;;;;4.22;3.00;;;;;;;;;;4995262;28;20236;-19
2022/05/10 01:30:14;;;;;;;4.85;3.17;;;;;;;;;;4995733;28;20239;-18
2022/05/10 01:35:30;;;;;;;4.40;2.67;;;;;;;;;;4997226;28;20228;-19
2022/05/10 01:37:59;;;;;;;6.47;3.08;;;;;;;;;;5000486;28;20231;-19
2022/05/10 01:40:29;;;;;;;4.72;2.88;;;;;;;;;;5000062;28;21013;-19
2022/05/10 01:42:58;;;;;;;4.70;2.95;;;;;;;;;;4999607;28;20232;-19
2022/05/10 01:45:28;;;;;;;3.83;2.90;;;;;;;;;;5006920;28;20684;-18
2022/05/10 01:47:56;;;;;;;5.70;3.38;;;;;;;;;;4999340;28;20244;-19
2022/05/10 01:50:24;;;;;;;6.13;3.40;;;;;;;;;;5000927;28;20228;-19
2022/05/10 01:52:54;;;;;;;4.00;2.83;;;;;;;;;;4997248;28;20239;-19
2022/05/10 01:55:26;;;;;;;5.90;3.05;;;;;;;;;;4999086;28;20223;-18
2022/05/10 01:57:53;;;;;;;4.43;3.03;;;;;;;;;;5000931;28;20247;-18
2022/05/10 02:00:21;;;;;;;4.65;3.20;;;;;;;;;;5001366;28;20709;-18
2022/05/10 02:02:51;;;;;;;4.93;3.20;;;;;;;;;;4997100;28;20234;-19
2022/05/10 02:05:27;;;;;;;4.50;3.30;;;;;;;;;;4999918;28;20238;-19
2022/05/10 02:07:57;;;;;;;4.97;2.90;;;;;;;;;;5002294;28;20243;-19
2022/05/10 02:10:25;;;;;;;4.28;3.25;;;;;;;;;;5000732;28;20240;-18
2022/05/10 02:12:56;;;;;;;4.82;3.33;;;;;;;;;;4999572;28;20291;-19
2022/05/10 02:15:25;;;;;;;5.55;3.30;;;;;;;;;;4996981;28;20228;-18
2022/05/10 02:17:56;;;;;;;5.22;3.42;;;;;;;;;;5004320;28;20232;-19
2022/05/10 02:20:24;;;;;;;4.65;3.50;;;;;;;;;;5002694;28;20236;-18
2022/05/10 02:22:53;;;;;;;8.73;3.60;;;;;;;;;;5000212;28;20227;-18
2022/05/10 02:25:21;;;;;;;7.32;3.60;;;;;;;;;;5001502;28;20243;-18
2022/05/10 02:27:50;;;;;;;5.95;3.55;;;;;;;;;;4998566;28;20250;-18
2022/05/10 02:30:18;;;;;;;8.70;3.55;;;;;;;;;;5006925;28;20231;-19
2022/05/10 02:35:32;;;;;;;4.03;3.13;;;;;;;;;;5000881;28;20270;-18
2022/05/10 02:38:00;;;;;;;3.70;3.30;;;;;;;;;;5004690;28;20239;-19
2022/05/10 02:40:27;;;;;;;5.05;3.40;;;;;;;;;;5002858;28;20279;-19
2022/05/10 02:42:54;;;;;;;8.02;3.80;;;;;;;;;;4999853;28;20925;-19
2022/05/10 02:45:22;;;;;;;7.18;3.75;;;;;;;;;;5004535;28;20235;-19
2022/05/10 02:47:49;;;;;;;5.45;3.03;;;;;;;;;;5000237;28;20256;-18
2022/05/10 02:50:19;;;;;;;5.50;4.15;;;;;;;;;;5003210;28;20235;-18
2022/05/10 02:52:47;;;;;;;5.80;3.33;;;;;;;;;;5002457;28;20240;-19
2022/05/10 02:55:15;;;;;;;7.07;3.95;;;;;;;;;;4997898;28;20251;-18
2022/05/10 02:57:42;;;;;;;6.05;3.72;;;;;;;;;;4999885;28;20239;-19
2022/05/10 03:00:10;;;;;;;5.47;3.67;;;;;;;;;;5004216;28;20238;-19
2022/05/10 03:02:38;;;;;;;5.28;4.10;;;;;;;;;;5004104;28;20227;-19
2022/05/10 03:05:07;;;;;;;6.20;4.13;;;;;;;;;;5001090;28;20372;-19
2022/05/10 03:07:34;;;;;;;6.15;3.83;;;;;;;;;;4997419;28;20239;-19
2022/05/10 03:10:03;;;;;;;5.82;4.18;;;;;;;;;;5003757;28;20225;-18
2022/05/10 03:12:31;;;;;;;4.78;3.88;;;;;;;;;;5004532;28;20231;-19
2022/05/10 03:14:58;;;;;;;4.97;3.78;;;;;;;;;;5000106;28;20715;-19
2022/05/10 03:17:25;;;;;;;4.93;4.05;;;;;;;;;;5001556;28;20244;-19
2022/05/10 03:19:53;;;;;;;4.38;3.90;;;;;;;;;;5001848;28;20235;-19
2022/05/10 03:22:20;;;;;;;8.15;4.13;;;;;;;;;;5000282;28;20235;-19
2022/05/10 03:24:47;;;;;;;6.68;4.07;;;;;;;;;;5000731;28;20244;-19
2022/05/10 03:27:16;;;;;;;4.38;3.88;;;;;;;;;;5002004;28;20235;-19
2022/05/10 03:29:44;;;;;;;6.15;4.30;;;;;;;;;;5001561;28;20259;-19
2022/05/10 03:32:11;;;;;;;6.15;3.90;;;;;;;;;;5002964;28;20243;-19
2022/05/10 03:34:58;;;;;;;8.07;4.22;;;;;;;;;;4999042;28;20227;-19
2022/05/10 03:37:25;;;;;;;4.47;4.07;;;;;;;;;;5001416;28;20231;-18
2022/05/10 03:39:53;;;;;;;5.72;4.28;;;;;;;;;;5002973;28;20236;-18
2022/05/10 03:42:21;;;;;;;4.68;3.97;;;;;;;;;;5001329;28;20231;-18
2022/05/10 03:44:51;;;;;;;6.70;4.20;;;;;;;;;;5001770;28;20632;-19
2022/05/10 03:47:19;;;;;;;6.85;4.10;;;;;;;;;;5003265;28;20243;-19
2022/05/10 03:49:46;;;;;;;8.25;4.45;;;;;;;;;;5002079;28;20710;-19
2022/05/10 03:52:14;;;;;;;7.15;4.40;;;;;;;;;;4999597;28;20696;-18
2022/05/10 03:54:41;;;;;;;6.30;4.47;;;;;;;;;;5002772;28;20231;-18
2022/05/10 03:57:09;;;;;;;6.30;4.30;;;;;;;;;;5004116;28;20239;-18
2022/05/10 03:59:41;;;;;;;5.55;3.90;;;;;;;;;;4999889;28;20236;-18
2022/05/10 04:02:10;;;;;;;5.53;4.47;;;;;;;;;;5003173;28;20236;-18
2022/05/10 04:04:38;;;;;;;6.70;4.50;;;;;;;;;;4998978;28;20232;-19
2022/05/10 04:07:05;;;;;;;7.07;4.53;;;;;;;;;;4999744;28;20695;-19
2022/05/10 04:09:32;;;;;;;4.65;4.25;;;;;;;;;;4999999;28;20239;-18
2022/05/10 04:12:00;;;;;;;7.47;4.80;;;;;;;;;;5002985;28;20665;-19
2022/05/10 04:14:27;;;;;;;6.75;4.70;;;;;;;;;;4999927;28;20243;-18
2022/05/10 04:16:56;;;;;;;5.35;4.50;;;;;;;;;;5003412;28;20231;-19
2022/05/10 04:19:24;;;;;;;6.53;4.45;;;;;;;;;;5002243;28;20323;-19
2022/05/10 04:21:51;;;;;;;5.50;4.55;;;;;;;;;;5001613;28;20227;-19
2022/05/10 04:24:19;;;;;;;7.05;4.72;;;;;;;;;;5001318;28;20252;-18
2022/05/10 04:26:47;;;;;;;5.22;4.75;;;;;;;;;;4998493;28;20228;-19
2022/05/10 04:29:15;;;;;;;5.60;5.00;;;;;;;;;;5001965;28;20242;-19
2022/05/10 04:31:42;;;;;;;7.85;5.35;;;;;;;;;;5003532;28;21037;-19
2022/05/10 04:34:11;;;;;;;8.02;4.65;;;;;;;;;;4999831;28;20237;-18
2022/05/10 04:36:38;;;;;;;5.55;4.95;;;;;;;;;;4998370;28;20688;-19
2022/05/10 04:39:06;;;;;;;8.30;5.25;;;;;;;;;;5002452;28;20247;-19
2022/05/10 04:41:32;;;;;;;6.22;4.78;;;;;;;;;;4995542;28;20236;-19
2022/05/10 04:44:00;;;;;;;5.53;4.93;;;;;;;;;;4999823;28;20239;-19
2022/05/10 04:46:28;;;;;;;8.05;5.20;;;;;;;;;;5002108;28;20233;-18
2022/05/10 04:48:55;;;;;;;7.38;5.35;;;;;;;;;;4995872;28;20264;-18
2022/05/10 04:51:24;;;;;;;9.30;5.35;;;;;;;;;;4997510;28;20240;-18
2022/05/10 04:53:51;;;;;;;5.93;4.50;;;;;;;;;;4996730;28;20236;-19
2022/05/10 04:56:19;;;;;;;6.93;5.07;;;;;;;;;;4994137;28;20228;-19
2022/05/10 04:58:46;;;;;;;6.20;4.90;;;;;;;;;;4991726;28;20236;-19
2022/05/10 05:01:14;;;;;;;5.95;5.07;;;;;;;;;;4994438;28;20243;-19
2022/05/10 05:03:42;;;;;;;7.85;5.72;;;;;;;;;;4994872;28;20235;-19
2022/05/10 05:06:10;;;;;;;7.22;5.53;;;;;;;;;;4995618;28;20246;-18
2022/05/10 05:08:38;;;;;;;6.82;5.22;;;;;;;;;;4994644;28;20233;-19
2022/05/10 05:11:06;;;;;;;9.43;5.47;;;;;;;;;;4996539;28;20788;-18
2022/05/10 05:13:33;;;;;;;8.38;6.00;;;;;;;;;;4993935;28;20236;-18
2022/05/10 05:16:00;;;;;;;6.57;5.07;;;;;;;;;;5002508;28;20224;-18
2022/05/10 05:18:28;;;;;;;7.15;5.38;;;;;;;;;;5001868;28;20246;-18
2022/05/10 05:20:55;;;;;;;7.40;5.05;;;;;;;;;;4997773;28;20232;-18
2022/05/10 05:23:23;;;;;;;9.15;5.28;;;;;;;;;;4999756;28;20242;-18
2022/05/10 05:25:53;;;;;;;7.10;4.90;;;;;;;;;;4993133;28;20240;-19
2022/05/10 05:28:20;;;;;;;8.93;5.30;;;;;;;;;;4999701;28;20259;-19
2022/05/10 05:30:47;;;;;;;6.03;4.90;;;;;;;;;;4998082;28;20268;-19
2022/05/10 05:33:15;;;;;;;7.70;5.10;;;;;;;;;;4999910;28;20241;-19
2022/05/10 05:35:42;;;;;;;5.22;4.60;;;;;;;;;;4999552;28;20237;-19
2022/05/10 05:38:09;;;;;;;5.55;5.05;;;;;;;;;;5001832;28;20240;-18
2022/05/10 05:40:37;;;;;;;8.73;5.80;;;;;;;;;;5001700;28;20235;-18
2022/05/10 05:43:06;;;;;;;7.22;5.85;;;;;;;;;;4997758;28;20239;-18
2022/05/10 05:45:33;;;;;;;13.32;7.03;;;;;;;;;;4992920;28;20247;-18
2022/05/10 05:48:01;;;;;;;10.20;6.50;;;;;;;;;;5001388;28;20231;-18
2022/05/10 05:50:28;;;;;;;12.40;6.13;;;;;;;;;;4998801;28;20347;-19
2022/05/10 05:52:56;;;;;;;10.55;6.32;;;;;;;;;;5004155;28;20235;-18
2022/05/10 05:55:24;;;;;;;9.18;6.30;;;;;;;;;;4998055;28;20746;-19
2022/05/10 05:57:51;;;;;;;10.38;6.57;;;;;;;;;;5002572;28;20804;-18
2022/05/10 06:00:20;;;;;;;12.20;6.70;;;;;;;;;;5002934;28;20488;-18
2022/05/10 06:02:48;;;;;;;7.65;6.30;;;;;;;;;;5002932;28;20231;-18
2022/05/10 06:05:15;;;;;;;10.75;6.53;;;;;;;;;;5000785;28;20262;-19
2022/05/10 06:07:43;;;;;;;10.23;6.70;;;;;;;;;;5001161;28;21019;-18
2022/05/10 06:10:10;;;;;;;8.20;6.20;;;;;;;;;;5002425;28;20232;-18
2022/05/10 06:12:37;;;;;;;9.93;6.68;;;;;;;;;;4996214;28;20719;-18
2022/05/10 06:15:11;;;;;;;7.35;6.40;;;;;;;;;;4985843;28;20227;-18
2022/05/10 06:17:40;;;;;;;8.82;6.40;;;;;;;;;;4988452;28;20242;-18
2022/05/10 06:20:09;;;;;;;9.20;7.30;;;;;;;;;;4986352;28;20237;-18
2022/05/10 06:22:36;;;;;;;8.85;6.60;;;;;;;;;;4987080;28;20232;-18
2022/05/10 06:25:03;;;;;;;12.95;7.38;;;;;;;;;;4987024;28;20248;-18
2022/05/10 06:27:31;;;;;;;9.85;7.10;;;;;;;;;;4990560;28;20318;-17
2022/05/10 06:29:59;;;;;;;7.90;6.32;;;;;;;;;;4991968;28;20246;-18
2022/05/10 06:32:26;;;;;;;12.32;7.72;;;;;;;;;;4991339;28;20247;-18
2022/05/10 06:34:55;;;;;;;12.50;7.50;;;;;;;;;;4997210;28;20238;-18
2022/05/10 06:40:08;;;;;;;12.93;6.93;;;;;;;;;;4992664;28;20257;-18
2022/05/10 06:42:35;;;;;;;11.88;7.20;;;;;;;;;;5001378;28;20224;-18
2022/05/10 06:45:02;;;;;;;10.40;6.90;;;;;;;;;;5005081;28;20246;-18
2022/05/10 06:47:30;;;;;;;9.43;7.25;;;;;;;;;;5003627;28;20228;-18
2022/05/10 06:49:59;;;;;;;9.68;7.63;;;;;;;;;;4999358;28;20758;-18
2022/05/10 06:52:26;;;;;;;12.07;7.10;;;;;;;;;;5000815;28;20239;-18
2022/05/10 06:54:54;;;;;;;7.78;6.97;;;;;;;;;;5003326;28;20232;-18
2022/05/10 06:57:21;;;;;;;8.70;6.72;;;;;;;;;;5001879;28;20242;-18
2022/05/10 06:59:49;;;;;;;8.40;6.65;;;;;;;;;;5001526;28;20232;-18
2022/05/10 07:02:16;;;;;;;10.88;7.03;;;;;;;;;;5003589;28;20238;-19
2022/05/10 07:04:43;;;;;;;9.65;7.07;;;;;;;;;;5002452;28;20239;-19
2022/05/10 07:07:12;;;;;;;8.23;6.95;;;;;;;;;;5000091;28;20240;-19
2022/05/10 07:09:39;;;;;;;7.53;6.30;;;;;;;;;;5003374;28;20239;-18
2022/05/10 07:12:07;;;;;;;8.45;6.38;;;;;;;;;;4999618;28;20243;-18
2022/05/10 07:14:34;;;;;;;9.20;7.55;;;;;;;;;;5000214;28;20238;-18
2022/05/10 07:17:01;;;;;;;8.98;6.93;;;;;;;;;;4996061;28;20635;-18
2022/05/10 07:19:29;;;;;;;8.73;6.90;;;;;;;;;;4999934;28;20239;-18
2022/05/10 07:21:56;;;;;;;9.23;6.65;;;;;;;;;;4998898;28;20220;-18
2022/05/10 07:24:25;;;;;;;9.60;7.13;;;;;;;;;;4996210;28;20252;-19
2022/05/10 07:26:52;;;;;;;7.88;6.88;;;;;;;;;;4995129;28;20236;-18
2022/05/10 07:29:19;;;;;;;10.15;7.35;;;;;;;;;;4995704;28;20230;-18
2022/05/10 07:31:47;;;;;;;8.48;7.65;;;;;;;;;;4993488;28;20255;-18
2022/05/10 07:34:14;;;;;;;10.73;7.85;;;;;;;;;;4996394;28;20314;-18
2022/05/10 07:36:41;;;;;;;12.55;7.20;;;;;;;;;;5000703;28;20224;-19
2022/05/10 07:39:09;;;;;;;10.18;7.75;;;;;;;;;;5003533;28;20289;-19
2022/05/10 07:41:38;;;;;;;11.55;7.53;;;;;;;;;;4990633;28;20228;-18
2022/05/10 07:44:05;;;;;;;9.52;8.05;;;;;;;;;;4994219;28;20242;-18
2022/05/10 07:46:33;;;;;;;16.15;7.85;;;;;;;;;;4991737;28;20232;-19
2022/05/10 07:49:00;;;;;;;12.13;8.48;;;;;;;;;;4997898;28;20318;-18
2022/05/10 07:51:27;;;;;;;17.33;8.40;;;;;;;;;;4990546;28;20240;-19
2022/05/10 07:53:55;;;;;;;10.73;7.43;;;;;;;;;;4993575;28;20260;-18
2022/05/10 07:56:24;;;;;;;11.80;7.32;;;;;;;;;;4998626;28;20239;-19
2022/05/10 07:58:54;;;;;;;13.50;8.05;;;;;;;;;;4995407;28;20246;-18
2022/05/10 08:01:21;;;;;;;11.00;7.55;;;;;;;;;;4997874;28;20220;-18
2022/05/10 08:03:49;;;;;;;12.82;7.90;;;;;;;;;;4997361;28;20723;-18
2022/05/10 08:06:16;;;;;;;9.63;7.53;;;;;;;;;;5001572;28;20239;-18
2022/05/10 08:08:44;;;;;;;8.98;8.07;;;;;;;;;;5000110;28;20219;-18
2022/05/10 08:11:11;;;;;;;10.63;8.15;;;;;;;;;;5003442;28;20236;-18
2022/05/10 08:13:39;;;;;;;12.75;8.93;;;;;;;;;;4998455;28;20707;-18
2022/05/10 08:16:08;;;;;;;11.52;7.95;;;;;;;;;;4998964;28;20224;-19
2022/05/10 08:18:37;;;;;;;12.25;7.75;;;;;;;;;;5001325;28;20235;-18
2022/05/10 08:21:04;;;;;;;15.05;8.07;;;;;;;;;;4989077;28;20232;-18
2022/05/10 08:23:35;;;;;;;12.88;7.55;;;;;;;;;;4997189;28;20222;-19
2022/05/10 08:26:03;;;;;;;8.43;7.18;;;;;;;;;;4983761;28;20767;-19
2022/05/10 08:28:31;;;;;;;11.85;6.88;;;;;;;;;;4985250;28;20827;-18
2022/05/10 08:30:58;;;;;;;11.05;7.28;;;;;;;;;;4991364;28;20338;-18
2022/05/10 08:33:28;;;;;;;8.70;7.13;;;;;;;;;;4995184;28;21012;-18
2022/05/10 08:35:55;;;;;;;12.15;7.22;;;;;;;;;;4995876;28;20228;-18
2022/05/10 08:38:23;;;;;;;15.13;6.95;;;;;;;;;;4995428;28;20242;-19
2022/05/10 08:40:53;;;;;;;12.57;6.97;;;;;;;;;;5001013;28;20286;-19
2022/05/10 08:43:21;;;;;;;10.65;6.80;;;;;;;;;;5000226;28;20215;-18
2022/05/10 08:45:48;;;;;;;12.85;6.82;;;;;;;;;;5002831;28;20259;-19
2022/05/10 08:48:16;;;;;;;7.55;6.65;;;;;;;;;;4999736;28;20307;-19
2022/05/10 08:50:46;;;;;;;9.82;7.07;;;;;;;;;;4996850;28;20231;-19
2022/05/10 08:53:14;;;;;;;7.45;6.57;;;;;;;;;;4999984;28;20232;-19
2022/05/10 08:55:43;;;;;;;10.75;6.93;;;;;;;;;;4999973;28;20259;-19
2022/05/10 08:58:11;;;;;;;10.07;6.30;;;;;;;;;;5001908;28;20232;-18
2022/05/10 09:00:39;;;;;;;8.98;6.50;;;;;;;;;;4998461;28;20232;-18
2022/05/10 09:03:12;;;;;;;7.60;6.90;;;;;;;;;;5002471;28;20227;-19
2022/05/10 09:05:41;;;;;;;8.88;6.93;;;;;;;;;;4999480;28;20232;-18
2022/05/10 09:08:12;;;;;;;8.98;6.43;;;;;;;;;;5001833;28;20263;-19
2022/05/10 09:10:41;;;;;;;7.63;6.55;;;;;;;;;;4997639;28;20239;-18
2022/05/10 09:13:10;;;;;;;9.15;6.78;;;;;;;;;;4996797;28;20239;-18
2022/05/10 09:15:38;;;;;;;8.50;6.40;;;;;;;;;;4997495;28;20305;-19
2022/05/10 09:18:07;;;;;;;7.22;5.78;;;;;;;;;;5001572;28;20314;-18
2022/05/10 09:20:35;;;;;;;12.80;6.15;;;;;;;;;;4997260;28;20243;-18
2022/05/10 09:23:19;;;;;;;7.72;5.75;;;;;;;;;;5001105;28;20227;-19
2022/05/10 09:25:46;;;;;;;7.32;5.95;;;;;;;;;;4996453;28;20274;-19
2022/05/10 09:28:34;;;;;;;9.57;5.80;;;;;;;;;;4998148;28;20236;-19
2022/05/10 09:34:47;;;;;;;7.97;6.40;;;;;;;;;;4997823;28;20240;-18
2022/05/10 09:37:16;;;;;;;6.70;6.00;;;;;;;;;;4997353;28;21092;-18
2022/05/10 09:39:46;;;;;;;6.20;5.60;;;;;;;;;;5000711;28;20243;-18
2022/05/10 09:42:24;;;;;;;7.10;5.35;;;;;;;;;;5002726;28;20235;-18
2022/05/10 09:44:57;;;;;;;6.55;5.30;;;;;;;;;;4999606;28;20307;-18
2022/05/10 09:47:24;;;;;;;7.60;5.70;;;;;;;;;;5002840;28;20269;-18
2022/05/10 09:49:51;;;;;;;8.13;6.00;;;;;;;;;;4997770;28;20238;-18
2022/05/10 09:52:19;;;;;;;8.60;5.85;;;;;;;;;;4998789;28;20236;-18
2022/05/10 09:54:48;;;;;;;6.82;5.70;;;;;;;;;;5000255;28;20228;-19
2022/05/10 09:57:25;;;;;;;9.95;5.68;;;;;;;;;;4997842;28;20228;-19
2022/05/10 09:59:52;;;;;;;7.57;6.28;;;;;;;;;;4993159;28;20240;-19
2022/05/10 10:02:26;;;;;;;9.30;6.07;;;;;;;;;;4996692;28;21010;-18
2022/05/10 10:04:53;;;;;;;6.18;5.57;;;;;;;;;;5000712;28;20239;-18
2022/05/10 10:07:22;;;;;;;6.90;5.43;;;;;;;;;;4999289;28;20235;-18
2022/05/10 10:09:52;;;;;;;6.70;6.00;;;;;;;;;;5000196;28;20236;-18
2022/05/10 10:12:30;;;;;;;10.57;6.10;;;;;;;;;;4998394;28;20232;-18
2022/05/10 10:14:58;;;;;;;7.60;5.60;;;;;;;;;;5001229;28;20235;-18
2022/05/10 10:17:25;;;;;;;7.22;5.57;;;;;;;;;;4997853;28;20286;-19
2022/05/10 10:19:54;;;;;;;10.20;6.45;;;;;;;;;;4998564;28;20236;-19
2022/05/10 10:22:29;;;;;;;7.00;5.45;;;;;;;;;;4998174;28;20977;-19
2022/05/10 10:25:01;;;;;;;8.38;6.07;;;;;;;;;;5000334;28;20979;-18
2022/05/10 10:27:29;;;;;;;8.70;5.38;;;;;;;;;;4998450;28;20228;-19
2022/05/10 10:29:58;;;;;;;7.53;5.47;;;;;;;;;;4999919;28;20238;-19
2022/05/10 10:32:28;;;;;;;8.38;5.95;;;;;;;;;;5001393;28;20247;-19
2022/05/10 10:35:00;;;;;;;6.80;5.15;;;;;;;;;;4998610;28;20309;-19
2022/05/10 10:37:29;;;;;;;5.88;5.25;;;;;;;;;;4999343;28;20228;-19
2022/05/10 10:40:02;;;;;;;11.10;5.38;;;;;;;;;;5003366;28;20236;-19
2022/05/10 10:42:33;;;;;;;6.53;5.10;;;;;;;;;;5001360;28;20235;-19
2022/05/10 10:45:00;;;;;;;9.52;5.28;;;;;;;;;;5005567;28;20236;-19
2022/05/10 10:47:37;;;;;;;7.65;5.53;;;;;;;;;;5001318;28;20802;-18
2022/05/10 10:50:08;;;;;;;8.38;5.05;;;;;;;;;;4997368;28;20318;-18
2022/05/10 10:52:36;;;;;;;5.97;5.38;;;;;;;;;;5004060;28;20761;-18
2022/05/10 10:55:05;;;;;;;6.57;5.65;;;;;;;;;;4997213;28;20232;-19
2022/05/10 10:57:36;;;;;;;6.38;5.20;;;;;;;;;;4997359;28;20236;-18
2022/05/10 11:00:07;;;;;;;7.03;5.30;;;;;;;;;;5000969;28;20238;-19
2022/05/10 11:02:49;;;;;;;6.88;5.82;;;;;;;;;;4996653;28;20228;-19
2022/05/10 11:05:20;;;;;;;6.50;5.28;;;;;;;;;;5000277;28;20255;-19
2022/05/10 11:07:50;;;;;;;6.75;5.18;;;;;;;;;;5002296;28;21055;-18
2022/05/10 11:10:23;;;;;;;9.65;5.65;;;;;;;;;;5002292;28;20236;-19
2022/05/10 11:12:53;;;;;;;6.68;5.22;;;;;;;;;;4999372;28;20244;-19
2022/05/10 11:15:24;;;;;;;7.05;5.55;;;;;;;;;;5003720;28;20282;-18
2022/05/10 11:18:20;;;;;;;6.50;5.32;;;;;;;;;;4999891;28;20228;-18
2022/05/10 11:20:49;;;;;;;7.00;4.85;;;;;;;;;;4988720;28;20274;-18
2022/05/10 11:23:20;;;;;;;10.48;5.40;;;;;;;;;;5001763;28;20247;-19
2022/05/10 11:25:52;;;;;;;8.77;5.78;;;;;;;;;;5001812;28;20301;-18
2022/05/10 11:28:27;;;;;;;6.47;5.00;;;;;;;;;;5000051;28;21053;-18
2022/05/10 11:30:57;;;;;;;7.57;4.72;;;;;;;;;;4999787;28;20238;-19
2022/05/10 11:33:30;;;;;;;6.65;5.45;;;;;;;;;;5001317;28;20446;-18
2022/05/10 11:35:58;;;;;;;6.32;5.35;;;;;;;;;;4999820;28;20774;-18
2022/05/10 11:38:43;;;;;;;8.40;5.30;;;;;;;;;;5003031;28;20228;-19
2022/05/10 11:41:13;;;;;;;8.05;5.45;;;;;;;;;;4993561;28;20978;-18
2022/05/10 11:43:54;;;;;;;8.20;5.38;;;;;;;;;;5003573;28;20234;-19
2022/05/10 11:46:40;;;;;;;11.63;5.22;;;;;;;;;;4999474;28;20726;-19
2022/05/10 11:49:13;;;;;;;6.93;4.50;;;;;;;;;;4996150;28;20240;-19
2022/05/10 11:51:50;;;;;;;8.07;5.13;;;;;;;;;;4997787;28;20282;-19
2022/05/10 11:54:38;;;;;;;9.57;5.25;;;;;;;;;;5001979;28;20246;-19
2022/05/10 11:57:06;;;;;;;6.75;5.10;;;;;;;;;;4995207;28;20243;-19
2022/05/10 11:59:35;;;;;;;6.68;4.75;;;;;;;;;;5003289;28;20629;-19
2022/05/10 12:02:03;;;;;;;11.30;5.45;;;;;;;;;;4995015;28;20257;-19
2022/05/10 12:04:37;;;;;;;9.88;5.20;;;;;;;;;;4988588;28;20332;-18
2022/05/10 12:07:24;;;;;;;5.97;4.97;;;;;;;;;;4990565;28;20314;-18
2022/05/10 12:09:55;;;;;;;14.00;5.13;;;;;;;;;;4995171;28;21093;-18
2022/05/10 12:12:37;;;;;;;13.50;5.20;;;;;;;;;;4994825;28;20236;-18
2022/05/10 12:23:53;;;;;;;6.55;5.43;;;;;;;;;;4986579;28;20231;-19
2022/05/10 12:26:32;;;;;;;9.02;5.40;;;;;;;;;;4986976;28;20236;-19
2022/05/10 12:28:59;;;;;;;7.50;5.25;;;;;;;;;;4997644;28;20228;-19
2022/05/10 12:31:50;;;;;;;9.50;5.22;;;;;;;;;;5002012;28;20227;-18
2022/05/10 12:34:32;;;;;;;9.27;5.18;;;;;;;;;;4996704;28;20244;-19
2022/05/10 12:37:15;;;;;;;9.82;5.40;;;;;;;;;;5002679;28;20215;-19
2022/05/10 12:39:43;;;;;;;9.43;5.15;;;;;;;;;;4993673;28;20232;-19
2022/05/10 12:42:13;;;;;;;8.38;5.20;;;;;;;;;;4998789;28;20613;-19
2022/05/10 12:44:49;;;;;;;8.55;5.68;;;;;;;;;;5000066;28;20236;-19
2022/05/10 12:47:24;;;;;;;10.95;5.53;;;;;;;;;;4999342;28;20232;-20
2022/05/10 12:49:55;;;;;;;8.02;5.07;;;;;;;;;;5000454;28;20228;-19
2022/05/10 12:52:24;;;;;;;7.82;5.20;;;;;;;;;;4999650;28;20227;-19
2022/05/10 12:54:55;;;;;;;9.40;5.65;;;;;;;;;;5001145;28;20363;-19
2022/05/10 12:57:25;;;;;;;8.70;5.22;;;;;;;;;;5000210;28;20230;-20
2022/05/10 12:59:55;;;;;;;6.82;5.15;;;;;;;;;;4995048;28;20267;-19
2022/05/10 13:02:22;;;;;;;7.93;5.25;;;;;;;;;;4995884;28;20236;-19
2022/05/10 13:04:50;;;;;;;8.70;5.47;;;;;;;;;;5000750;28;20400;-19
2022/05/10 13:07:22;;;;;;;6.35;5.28;;;;;;;;;;5000567;28;20240;-19
2022/05/10 13:09:57;;;;;;;6.63;4.88;;;;;;;;;;4999466;28;20683;-19
2022/05/10 13:12:25;;;;;;;7.78;5.28;;;;;;;;;;5001200;28;20229;-19
2022/05/10 13:14:52;;;;;;;6.07;5.47;;;;;;;;;;4999092;28;20718;-18
2022/05/10 13:17:20;;;;;;;13.60;5.40;;;;;;;;;;4998825;28;20381;-18
2022/05/10 13:19:48;;;;;;;6.97;5.25;;;;;;;;;;4999595;28;20243;-18
2022/05/10 13:22:18;;;;;;;6.47;5.45;;;;;;;;;;5000812;28;21072;-19
2022/05/10 13:24:46;;;;;;;5.60;4.93;;;;;;;;;;5000950;28;20250;-18
2022/05/10 13:27:25;;;;;;;7.10;5.22;;;;;;;;;;4999318;28;20240;-18
2022/05/10 13:29:53;;;;;;;9.25;5.45;;;;;;;;;;4999699;28;20235;-19
2022/05/10 13:32:28;;;;;;;8.93;4.93;;;;;;;;;;4998327;28;20959;-18
2022/05/10 13:34:55;;;;;;;10.27;5.43;;;;;;;;;;5000853;28;20331;-18
2022/05/10 13:37:24;;;;;;;6.13;4.88;;;;;;;;;;4999316;28;20231;-18
2022/05/10 13:39:51;;;;;;;13.25;5.95;;;;;;;;;;5000623;28;20251;-19
2022/05/10 13:42:20;;;;;;;7.03;6.00;;;;;;;;;;5000192;28;20215;-19
2022/05/10 13:44:49;;;;;;;7.50;5.65;;;;;;;;;;4999946;28;20239;-18
2022/05/10 13:47:20;;;;;;;8.57;5.90;;;;;;;;;;4999627;28;20789;-18
2022/05/10 13:49:48;;;;;;;6.72;4.97;;;;;;;;;;4994463;28;20247;-19
2022/05/10 13:52:20;;;;;;;7.07;5.57;;;;;;;;;;4996444;28;20710;-19
2022/05/10 13:54:54;;;;;;;6.55;5.10;;;;;;;;;;4999749;28;20254;-19
2022/05/10 13:57:25;;;;;;;6.32;5.10;;;;;;;;;;4998968;28;20243;-18
2022/05/10 13:59:53;;;;;;;8.10;5.03;;;;;;;;;;5000530;28;20242;-19
2022/05/10 14:02:21;;;;;;;12.43;5.55;;;;;;;;;;5001178;28;20725;-18
2022/05/10 14:04:49;;;;;;;9.00;5.25;;;;;;;;;;4999719;28;20231;-18
2022/05/10 14:07:17;;;;;;;8.20;4.70;;;;;;;;;;4999310;28;20240;-19
2022/05/10 14:09:46;;;;;;;11.02;5.85;;;;;;;;;;4996673;28;20232;-18
2022/05/10 14:12:14;;;;;;;6.70;5.35;;;;;;;;;;5001440;28;20698;-19
2022/05/10 14:14:41;;;;;;;8.27;5.00;;;;;;;;;;5001937;28;20667;-18
2022/05/10 14:17:10;;;;;;;10.05;4.82;;;;;;;;;;5004520;28;20232;-18
2022/05/10 14:19:38;;;;;;;11.13;4.50;;;;;;;;;;4999432;28;20333;-18
2022/05/10 14:22:06;;;;;;;7.22;5.53;;;;;;;;;;5005065;28;20781;-18
2022/05/10 14:24:34;;;;;;;6.45;5.38;;;;;;;;;;4997135;28;20251;-19
2022/05/10 14:27:07;;;;;;;10.43;5.88;;;;;;;;;;5004957;28;21123;-19
2022/05/10 14:29:35;;;;;;;13.77;5.40;;;;;;;;;;4997613;28;20243;-19
2022/05/10 14:32:03;;;;;;;6.43;4.80;;;;;;;;;;5003193;28;20229;-18
2022/05/10 14:34:49;;;;;;;10.05;5.40;;;;;;;;;;5001111;28;20646;-19
2022/05/10 14:37:22;;;;;;;8.40;5.10;;;;;;;;;;5000636;28;20327;-19
2022/05/10 14:39:49;;;;;;;7.95;5.10;;;;;;;;;;5002610;28;20227;-18
2022/05/10 14:42:24;;;;;;;7.93;5.50;;;;;;;;;;5000624;28;20323;-19
2022/05/10 14:44:52;;;;;;;6.95;5.30;;;;;;;;;;5003339;28;20794;-19
2022/05/10 14:47:20;;;;;;;7.88;5.15;;;;;;;;;;5004019;28;20228;-19
2022/05/10 14:49:48;;;;;;;9.50;5.32;;;;;;;;;;5002233;28;20781;-19
2022/05/10 14:52:25;;;;;;;8.43;5.90;;;;;;;;;;4999616;28;20232;-19
2022/05/10 14:54:53;;;;;;;7.32;5.40;;;;;;;;;;5003217;28;20937;-19
2022/05/10 14:57:22;;;;;;;8.00;5.07;;;;;;;;;;5002297;28;20233;-19
2022/05/10 14:59:53;;;;;;;6.90;4.90;;;;;;;;;;5004772;28;20228;-19
2022/05/10 15:02:25;;;;;;;6.97;5.05;;;;;;;;;;5000935;28;20245;-19
2022/05/10 15:04:52;;;;;;;8.05;5.90;;;;;;;;;;5002278;28;20256;-18
2022/05/10 15:07:20;;;;;;;6.10;5.35;;;;;;;;;;5002453;28;20246;-18
2022/05/10 15:09:49;;;;;;;10.07;5.22;;;;;;;;;;5002112;28;20324;-18
2022/05/10 15:15:01;;;;;;;9.38;4.90;;;;;;;;;;4999599;28;20242;-18
2022/05/10 15:17:29;;;;;;;10.20;5.40;;;;;;;;;;5003235;28;20238;-18